Time;durP1;ratioP1;P1;durP2;ratioP2;P2;SDS_P1;SDS_P2;PMS_P1;PMS_P2;Temp;Humidity;BMP_temperature;BMP_pressure;BME280_temperature;BME280_humidity;BME280_pressure;Samples;Min_cycle;Max_cycle;Signal;HPM_P1;HPM_P2
2022/07/30 00:00:05;;;;;;;0.73;0.70;;;14.80;99.40;;;;;;5093543;28;20410;-68
2022/07/30 00:02:31;;;;;;;1.73;1.07;;;14.80;99.70;;;;;;5093104;28;20173;-69
2022/07/30 00:04:56;;;;;;;1.00;1.00;;;14.80;99.60;;;;;;5093376;28;20507;-69
2022/07/30 00:07:22;;;;;;;1.03;1.03;;;14.80;99.50;;;;;;5093358;28;20173;-68
2022/07/30 00:09:48;;;;;;;0.87;0.87;;;14.70;99.90;;;;;;5093560;28;20168;-69
2022/07/30 00:12:13;;;;;;;1.00;1.00;;;14.70;99.90;;;;;;5093426;28;20180;-70
2022/07/30 00:14:39;;;;;;;1.73;1.40;;;14.70;99.90;;;;;;5093144;28;20272;-68
2022/07/30 00:17:05;;;;;;;2.07;1.23;;;14.70;99.90;;;;;;5093130;28;20180;-70
2022/07/30 00:19:31;;;;;;;0.57;0.57;;;14.70;99.80;;;;;;5093116;28;20172;-69
2022/07/30 00:21:57;;;;;;;0.53;0.53;;;14.70;99.80;;;;;;5093210;28;20255;-69
2022/07/30 00:24:22;;;;;;;0.63;0.63;;;14.70;99.80;;;;;;5093141;28;20226;-70
2022/07/30 00:26:48;;;;;;;1.43;1.20;;;14.70;99.90;;;;;;5093263;28;20734;-69
2022/07/30 00:29:14;;;;;;;1.00;1.00;;;14.60;99.90;;;;;;5092912;28;20399;-70
2022/07/30 00:31:40;;;;;;;0.57;0.57;;;14.70;99.80;;;;;;5093301;28;20165;-69
2022/07/30 00:34:06;;;;;;;0.50;0.50;;;14.70;99.80;;;;;;5093005;28;20423;-69
2022/07/30 00:36:32;;;;;;;0.80;0.77;;;14.50;99.60;;;;;;5093109;28;20403;-68
2022/07/30 00:38:58;;;;;;;0.53;0.50;;;14.60;99.70;;;;;;5092990;28;20741;-70
2022/07/30 00:41:24;;;;;;;0.70;0.70;;;14.60;99.80;;;;;;5093195;28;20214;-69
2022/07/30 00:43:50;;;;;;;1.43;0.70;;;14.50;99.80;;;;;;5092985;28;20636;-69
2022/07/30 00:46:16;;;;;;;3.60;0.90;;;14.50;99.90;;;;;;5074774;28;20503;-71
2022/07/30 00:48:42;;;;;;;0.50;0.50;;;14.50;99.80;;;;;;5094497;28;20734;-69
2022/07/30 00:51:08;;;;;;;0.60;0.60;;;14.50;99.80;;;;;;5096624;28;20251;-69
2022/07/30 00:53:34;;;;;;;1.17;1.17;;;14.50;99.60;;;;;;5096508;28;20446;-69
2022/07/30 00:56:00;;;;;;;0.50;0.50;;;14.60;99.60;;;;;;5078288;28;20168;-69
2022/07/30 00:58:26;;;;;;;2.83;1.30;;;14.50;99.70;;;;;;5096286;28;20810;-70
2022/07/30 01:00:52;;;;;;;0.70;0.70;;;14.60;99.70;;;;;;5096267;28;20448;-69
2022/07/30 01:03:17;;;;;;;0.60;0.60;;;14.50;99.60;;;;;;5096281;28;20788;-69
2022/07/30 01:05:43;;;;;;;0.93;0.80;;;14.50;99.60;;;;;;5096189;28;20199;-70
2022/07/30 01:08:09;;;;;;;0.67;0.67;;;14.60;99.60;;;;;;5096262;28;20168;-69
2022/07/30 01:10:34;;;;;;;0.67;0.50;;;14.40;99.40;;;;;;5096320;28;20177;-69
2022/07/30 01:13:00;;;;;;;1.17;1.07;;;14.40;99.50;;;;;;5096263;28;20172;-68
2022/07/30 01:15:27;;;;;;;1.17;1.17;;;14.40;99.50;;;;;;5096067;28;20164;-69
2022/07/30 01:17:55;;;;;;;0.70;0.70;;;14.30;99.80;;;;;;5095878;28;20504;-69
2022/07/30 01:20:48;;;;;;;2.03;1.53;;;14.30;99.90;;;;;;5096007;28;20403;-70
2022/07/30 01:23:30;;;;;;;0.70;0.70;;;14.30;99.90;;;;;;5089683;28;20959;-69
2022/07/30 01:25:59;;;;;;;0.73;0.73;;;14.30;99.70;;;;;;5096026;28;20935;-70
2022/07/30 01:28:54;;;;;;;1.17;1.13;;;14.30;99.70;;;;;;5095865;28;20882;-69
2022/07/30 01:31:22;;;;;;;1.43;1.33;;;14.30;99.90;;;;;;5082929;28;20411;-68
2022/07/30 01:33:49;;;;;;;1.00;0.70;;;14.20;99.90;;;;;;5095819;28;20506;-68
2022/07/30 01:36:17;;;;;;;0.53;0.53;;;14.20;99.90;;;;;;5077489;28;20766;-69
2022/07/30 01:38:44;;;;;;;1.10;1.10;;;14.10;99.90;;;;;;5095479;28;20407;-68
2022/07/30 01:41:12;;;;;;;1.57;1.47;;;14.20;99.90;;;;;;5096185;28;20433;-69
2022/07/30 01:43:39;;;;;;;0.70;0.70;;;14.20;99.90;;;;;;5095566;28;20484;-70
2022/07/30 01:46:06;;;;;;;1.23;0.80;;;14.20;99.90;;;;;;5095328;28;20500;-68
2022/07/30 01:48:35;;;;;;;0.70;0.70;;;14.10;99.90;;;;;;5095337;28;20403;-69
2022/07/30 01:51:06;;;;;;;0.70;0.70;;;14.20;99.80;;;;;;5095549;28;20939;-68
2022/07/30 01:53:35;;;;;;;0.80;0.80;;;14.20;99.80;;;;;;5095350;28;20415;-69
2022/07/30 01:56:02;;;;;;;1.10;1.10;;;14.10;99.80;;;;;;5095352;28;20447;-69
2022/07/30 01:58:38;;;;;;;0.57;0.57;;;14.00;99.80;;;;;;5095104;28;20410;-69
2022/07/30 02:01:04;;;;;;;1.03;0.63;;;14.10;99.90;;;;;;5095251;28;20503;-69
2022/07/30 02:03:30;;;;;;;0.60;0.60;;;14.10;99.80;;;;;;5094920;28;20954;-68
2022/07/30 02:06:04;;;;;;;0.70;0.70;;;14.00;99.80;;;;;;5094991;28;20454;-68
2022/07/30 02:08:44;;;;;;;0.43;0.43;;;14.00;99.90;;;;;;5094877;28;20256;-69
2022/07/30 02:11:13;;;;;;;1.10;0.67;;;14.00;99.90;;;;;;5095254;28;20402;-68
2022/07/30 02:13:48;;;;;;;0.80;0.80;;;13.90;99.90;;;;;;5095018;28;20414;-70
2022/07/30 02:16:25;;;;;;;0.40;0.40;;;13.90;99.90;;;;;;5095112;28;20428;-69
2022/07/30 02:19:17;;;;;;;0.60;0.60;;;13.90;99.90;;;;;;5094819;28;20414;-70
2022/07/30 02:22:04;;;;;;;0.50;0.50;;;13.90;99.90;;;;;;5094960;28;20445;-68
2022/07/30 02:24:30;;;;;;;0.80;0.63;;;13.90;99.90;;;;;;5094614;28;20502;-69
2022/07/30 02:27:02;;;;;;;1.17;1.17;;;13.90;99.90;;;;;;5094675;28;20402;-69
2022/07/30 02:29:29;;;;;;;1.23;1.13;;;13.80;99.80;;;;;;5094613;28;20390;-68
2022/07/30 02:31:58;;;;;;;0.50;0.50;;;13.80;99.90;;;;;;5094799;28;20428;-68
2022/07/30 02:34:24;;;;;;;0.77;0.77;;;13.90;99.90;;;;;;5094432;28;20539;-69
2022/07/30 02:36:51;;;;;;;0.70;0.70;;;13.80;99.90;;;;;;5094507;28;20395;-69
2022/07/30 02:39:19;;;;;;;0.63;0.63;;;13.80;99.90;;;;;;5076197;28;20406;-69
2022/07/30 02:41:47;;;;;;;0.77;0.77;;;13.80;99.90;;;;;;5094483;28;20404;-67
2022/07/30 02:44:16;;;;;;;2.50;1.57;;;13.80;99.90;;;;;;5094395;28;20787;-68
2022/07/30 02:46:44;;;;;;;1.07;0.93;;;13.80;99.90;;;;;;5094287;28;20406;-68
2022/07/30 02:49:12;;;;;;;1.70;0.83;;;13.80;99.90;;;;;;5094194;28;20399;-68
2022/07/30 02:51:38;;;;;;;1.07;1.07;;;13.70;99.90;;;;;;5094441;28;20390;-69
2022/07/30 02:54:06;;;;;;;1.07;1.00;;;13.70;99.90;;;;;;5094240;28;20422;-69
2022/07/30 02:56:33;;;;;;;1.10;1.10;;;13.60;99.90;;;;;;5094385;28;20398;-69
2022/07/30 02:59:02;;;;;;;0.57;0.57;;;13.70;99.90;;;;;;5093923;28;20436;-68
2022/07/30 03:01:30;;;;;;;0.73;0.73;;;13.70;99.90;;;;;;5094218;28;20408;-70
2022/07/30 03:03:56;;;;;;;2.60;2.00;;;13.70;99.90;;;;;;5093859;28;20535;-68
2022/07/30 03:06:24;;;;;;;1.20;1.20;;;13.70;99.90;;;;;;5094009;28;20480;-69
2022/07/30 03:08:52;;;;;;;0.77;0.53;;;13.60;99.90;;;;;;5093868;28;20399;-69
2022/07/30 03:11:19;;;;;;;2.47;2.27;;;13.70;99.90;;;;;;5093576;28;20412;-68
2022/07/30 03:13:45;;;;;;;1.10;1.10;;;13.60;99.90;;;;;;5093949;28;20436;-69
2022/07/30 03:16:12;;;;;;;1.30;1.30;;;13.60;99.90;;;;;;5093805;28;20398;-68
2022/07/30 03:18:39;;;;;;;1.17;1.17;;;13.50;99.90;;;;;;5093705;28;20167;-68
2022/07/30 03:21:08;;;;;;;1.17;1.10;;;13.50;99.90;;;;;;5093799;28;20805;-68
2022/07/30 03:23:36;;;;;;;1.40;1.30;;;13.50;99.90;;;;;;5075629;28;20451;-69
2022/07/30 03:26:04;;;;;;;0.90;0.90;;;13.60;99.90;;;;;;5093643;28;20453;-68
2022/07/30 03:28:35;;;;;;;1.60;1.50;;;13.50;99.90;;;;;;5093903;28;20854;-69
2022/07/30 03:31:01;;;;;;;0.70;0.70;;;13.50;99.90;;;;;;5093659;28;20400;-67
2022/07/30 03:33:27;;;;;;;0.73;0.73;;;13.50;99.90;;;;;;5093557;28;20520;-69
2022/07/30 03:35:54;;;;;;;1.10;0.97;;;13.40;99.90;;;;;;5075484;28;20417;-67
2022/07/30 03:38:20;;;;;;;1.10;1.00;;;13.40;99.90;;;;;;5093463;28;20417;-68
2022/07/30 03:40:46;;;;;;;0.73;0.73;;;13.30;99.90;;;;;;5093709;28;20414;-69
2022/07/30 03:43:13;;;;;;;1.97;1.53;;;13.30;99.90;;;;;;5093619;28;20418;-69
2022/07/30 03:45:41;;;;;;;0.90;0.90;;;13.30;99.90;;;;;;5093446;28;20540;-69
2022/07/30 03:48:08;;;;;;;1.53;1.43;;;13.40;99.90;;;;;;5093284;28;20417;-68
2022/07/30 03:50:40;;;;;;;0.60;0.60;;;13.30;99.90;;;;;;5093548;28;20397;-69
2022/07/30 03:53:07;;;;;;;1.60;1.43;;;13.40;99.90;;;;;;5093636;28;20792;-68
2022/07/30 03:55:34;;;;;;;2.10;2.00;;;13.40;99.90;;;;;;5093367;28;20416;-68
2022/07/30 03:58:01;;;;;;;0.97;0.97;;;13.40;99.90;;;;;;5093409;28;20419;-68
2022/07/30 04:00:27;;;;;;;1.07;1.03;;;13.50;99.90;;;;;;5093389;28;20755;-69
2022/07/30 04:02:53;;;;;;;1.10;1.10;;;13.50;99.90;;;;;;5093230;28;20497;-68
2022/07/30 04:05:19;;;;;;;0.90;0.70;;;13.50;99.90;;;;;;5093404;28;20913;-68
2022/07/30 04:07:45;;;;;;;0.70;0.70;;;13.50;99.90;;;;;;5093350;28;20528;-69
2022/07/30 04:10:11;;;;;;;1.40;1.30;;;13.40;99.90;;;;;;5093432;28;20402;-68
2022/07/30 04:12:37;;;;;;;0.90;0.90;;;13.40;99.90;;;;;;5075166;28;20805;-68
2022/07/30 04:15:03;;;;;;;0.93;0.90;;;13.40;99.90;;;;;;5093198;28;20426;-69
2022/07/30 04:17:46;;;;;;;2.10;1.33;;;13.40;99.90;;;;;;5093438;28;20172;-68
2022/07/30 04:20:19;;;;;;;0.97;0.97;;;13.40;99.90;;;;;;5093487;28;20435;-70
2022/07/30 04:22:46;;;;;;;1.50;1.40;;;13.50;99.90;;;;;;5093383;28;20425;-68
2022/07/30 04:25:13;;;;;;;0.93;0.90;;;13.40;99.90;;;;;;5096916;28;20442;-69
2022/07/30 04:27:39;;;;;;;0.90;0.90;;;13.50;99.90;;;;;;5096907;28;20530;-69
2022/07/30 04:30:06;;;;;;;1.50;1.40;;;13.50;99.90;;;;;;5097041;28;20447;-69
2022/07/30 04:32:32;;;;;;;1.33;1.23;;;13.50;99.90;;;;;;5096854;28;20551;-69
2022/07/30 04:34:58;;;;;;;1.20;1.13;;;13.60;99.90;;;;;;5096898;28;20434;-69
2022/07/30 04:37:26;;;;;;;3.23;2.30;;;13.60;99.90;;;;;;5096230;28;20402;-68
2022/07/30 04:39:56;;;;;;;1.07;0.80;;;13.60;99.90;;;;;;5096192;28;20662;-69
2022/07/30 04:42:26;;;;;;;0.77;0.77;;;13.60;99.90;;;;;;5094895;28;20489;-69
2022/07/30 04:44:53;;;;;;;1.00;1.00;;;13.60;99.90;;;;;;5096198;28;20949;-69
2022/07/30 04:47:21;;;;;;;1.60;1.27;;;13.60;99.90;;;;;;5096572;28;20409;-68
2022/07/30 04:49:48;;;;;;;1.87;0.60;;;13.60;99.90;;;;;;5078078;28;20502;-73
2022/07/30 04:52:15;;;;;;;0.93;0.93;;;14.00;99.90;;;;;;5096528;28;20813;-72
2022/07/30 04:54:51;;;;;;;1.10;1.10;;;14.80;99.90;;;;;;5096398;28;20848;-71
2022/07/30 04:57:18;;;;;;;2.50;1.13;;;15.50;99.90;;;;;;5096679;28;20808;-72
2022/07/30 04:59:44;;;;;;;1.80;1.70;;;16.20;99.90;;;;;;5096418;28;20408;-71
2022/07/30 05:02:11;;;;;;;0.70;0.70;;;16.90;99.90;;;;;;5096507;28;20399;-72
2022/07/30 05:04:39;;;;;;;1.40;1.30;;;17.60;98.30;;;;;;5096082;28;20453;-73
2022/07/30 05:07:06;;;;;;;0.70;0.70;;;18.20;97.20;;;;;;5095373;28;20411;-69
2022/07/30 05:09:32;;;;;;;0.90;0.90;;;18.60;95.00;;;;;;5094023;28;20494;-69
2022/07/30 05:11:58;;;;;;;0.60;0.60;;;18.70;92.70;;;;;;5094774;28;20399;-70
2022/07/30 05:14:25;;;;;;;0.73;0.73;;;18.60;92.50;;;;;;5095845;28;20860;-69
2022/07/30 05:16:51;;;;;;;0.73;0.73;;;18.30;92.40;;;;;;5095982;28;20403;-70
2022/07/30 05:19:20;;;;;;;1.63;1.53;;;18.00;92.50;;;;;;5077677;28;20914;-69
2022/07/30 05:21:46;;;;;;;1.13;0.93;;;17.90;92.80;;;;;;5096270;28;20399;-69
2022/07/30 05:24:12;;;;;;;0.57;0.50;;;18.00;92.70;;;;;;5095415;28;20430;-69
2022/07/30 05:26:38;;;;;;;0.70;0.70;;;18.10;92.90;;;;;;5095812;28;20812;-69
2022/07/30 05:29:03;;;;;;;1.37;1.27;;;18.20;93.00;;;;;;5095076;28;21185;-68
2022/07/30 05:31:29;;;;;;;1.23;1.07;;;18.30;93.10;;;;;;5095666;28;20211;-69
2022/07/30 05:33:55;;;;;;;0.53;0.53;;;18.50;92.80;;;;;;5095401;28;20195;-69
2022/07/30 05:36:20;;;;;;;1.17;1.13;;;18.60;92.70;;;;;;5095644;28;20174;-70
2022/07/30 05:38:47;;;;;;;0.70;0.70;;;18.90;92.50;;;;;;5095524;28;20221;-69
2022/07/30 05:41:13;;;;;;;0.50;0.50;;;19.20;91.90;;;;;;5095635;28;20181;-69
2022/07/30 05:43:39;;;;;;;0.67;0.67;;;19.30;91.70;;;;;;5095942;28;20537;-68
2022/07/30 05:46:04;;;;;;;0.80;0.70;;;19.70;91.30;;;;;;5095410;28;20199;-68
2022/07/30 05:48:34;;;;;;;1.03;1.03;;;20.00;90.70;;;;;;5095356;28;20894;-69
2022/07/30 05:51:03;;;;;;;0.57;0.57;;;19.90;90.30;;;;;;5093660;28;20167;-69
2022/07/30 05:53:28;;;;;;;0.70;0.70;;;19.80;90.40;;;;;;5093421;28;20433;-68
2022/07/30 05:55:54;;;;;;;0.70;0.70;;;19.60;90.90;;;;;;5095736;28;20410;-69
2022/07/30 05:58:20;;;;;;;2.40;0.80;;;19.60;91.00;;;;;;5095175;28;20183;-69
2022/07/30 06:00:46;;;;;;;0.80;0.80;;;19.50;91.50;;;;;;5094561;28;20175;-69
2022/07/30 06:03:11;;;;;;;0.87;0.73;;;19.40;91.60;;;;;;5095574;28;20456;-70
2022/07/30 06:05:37;;;;;;;0.70;0.70;;;19.30;91.60;;;;;;5077136;28;20200;-68
2022/07/30 06:08:03;;;;;;;0.60;0.60;;;19.40;91.90;;;;;;5095200;28;20171;-68
2022/07/30 06:10:30;;;;;;;0.70;0.70;;;19.40;91.90;;;;;;5095582;28;20257;-69
2022/07/30 06:12:55;;;;;;;1.13;0.97;;;19.40;91.80;;;;;;5095542;28;20414;-68
2022/07/30 06:15:21;;;;;;;1.13;0.90;;;19.40;92.00;;;;;;5095409;28;20399;-68
2022/07/30 06:17:47;;;;;;;0.93;0.93;;;19.50;92.30;;;;;;5094836;28;20170;-69
2022/07/30 06:20:14;;;;;;;0.80;0.80;;;19.60;92.90;;;;;;5095100;28;20192;-69
2022/07/30 06:22:40;;;;;;;0.83;0.83;;;19.80;92.50;;;;;;5095159;28;20413;-70
2022/07/30 06:25:06;;;;;;;1.27;1.00;;;20.40;91.70;;;;;;5095242;28;20459;-69
2022/07/30 06:27:32;;;;;;;1.83;0.80;;;21.30;90.70;;;;;;5095310;28;20807;-69
2022/07/30 06:30:06;;;;;;;0.87;0.87;;;22.10;88.70;;;;;;5094543;28;20403;-70
2022/07/30 06:32:32;;;;;;;1.40;0.80;;;22.60;87.10;;;;;;5095393;28;20936;-70
2022/07/30 06:34:57;;;;;;;0.73;0.73;;;22.60;85.70;;;;;;5094929;28;20419;-69
2022/07/30 06:37:23;;;;;;;0.80;0.80;;;22.50;84.90;;;;;;5095031;28;20175;-70
2022/07/30 06:39:49;;;;;;;2.80;2.20;;;22.50;85.30;;;;;;5094141;28;20199;-69
2022/07/30 06:42:14;;;;;;;0.63;0.57;;;22.60;85.60;;;;;;5076947;28;20175;-69
2022/07/30 06:44:40;;;;;;;1.53;1.20;;;22.70;85.30;;;;;;5076179;28;20199;-69
2022/07/30 06:47:06;;;;;;;0.67;0.67;;;22.70;85.80;;;;;;5093835;28;20263;-69
2022/07/30 06:49:33;;;;;;;0.93;0.93;;;22.80;84.90;;;;;;5094428;28;20456;-68
2022/07/30 06:51:59;;;;;;;0.80;0.80;;;23.40;84.90;;;;;;5094233;28;20176;-70
2022/07/30 06:54:24;;;;;;;1.70;0.57;;;24.80;83.10;;;;;;5094568;28;20419;-70
2022/07/30 06:56:50;;;;;;;1.03;0.87;;;26.00;75.30;;;;;;5092659;28;20436;-69
2022/07/30 06:59:15;;;;;;;0.77;0.77;;;26.10;72.10;;;;;;5093187;28;20533;-69
2022/07/30 07:01:41;;;;;;;0.80;0.80;;;25.90;73.10;;;;;;5092444;28;20666;-69
2022/07/30 07:04:07;;;;;;;0.87;0.87;;;25.60;73.70;;;;;;5092848;28;20281;-70
2022/07/30 07:06:32;;;;;;;1.10;1.00;;;25.50;72.50;;;;;;5092260;28;20325;-69
2022/07/30 07:08:58;;;;;;;1.03;0.70;;;25.40;71.40;;;;;;5093405;28;20190;-70
2022/07/30 07:11:24;;;;;;;0.67;0.63;;;25.60;70.00;;;;;;5093307;28;20529;-69
2022/07/30 07:13:50;;;;;;;0.53;0.53;;;26.20;64.60;;;;;;5092405;28;20244;-69
2022/07/30 07:16:20;;;;;;;0.50;0.50;;;26.40;61.40;;;;;;5093387;28;20161;-70
2022/07/30 07:18:46;;;;;;;1.50;0.80;;;26.10;62.20;;;;;;5075523;28;20241;-69
2022/07/30 07:21:12;;;;;;;0.90;0.90;;;26.10;64.80;;;;;;5093617;28;20498;-70
2022/07/30 07:23:37;;;;;;;0.60;0.60;;;25.90;61.00;;;;;;5093375;28;20513;-70
2022/07/30 07:26:03;;;;;;;1.13;0.80;;;25.70;59.60;;;;;;5092089;28;20560;-70
2022/07/30 07:28:28;;;;;;;0.63;0.57;;;26.10;59.20;;;;;;5074473;28;20168;-69
2022/07/30 07:30:54;;;;;;;0.50;0.50;;;27.10;59.90;;;;;;5093839;28;20215;-69
2022/07/30 07:33:19;;;;;;;0.57;0.57;;;28.30;58.20;;;;;;5093587;28;20192;-70
2022/07/30 07:35:45;;;;;;;0.57;0.57;;;29.30;53.90;;;;;;5093941;28;20298;-70
2022/07/30 07:38:12;;;;;;;0.70;0.70;;;29.30;52.90;;;;;;5093466;28;20683;-69
2022/07/30 07:40:38;;;;;;;0.60;0.60;;;29.70;52.10;;;;;;5094047;28;20169;-70
2022/07/30 07:43:04;;;;;;;0.70;0.70;;;30.70;50.80;;;;;;5093448;28;20421;-70
2022/07/30 07:45:30;;;;;;;0.80;0.63;;;31.40;48.30;;;;;;5075597;28;20197;-70
2022/07/30 07:47:55;;;;;;;0.50;0.50;;;31.90;46.80;;;;;;5093589;28;20405;-70
2022/07/30 07:50:21;;;;;;;0.50;0.50;;;32.70;45.90;;;;;;5094009;28;20259;-71
2022/07/30 07:52:47;;;;;;;0.60;0.60;;;33.30;43.90;;;;;;5094111;28;20172;-71
2022/07/30 07:55:13;;;;;;;0.83;0.83;;;33.90;41.20;;;;;;5075820;28;20458;-69
2022/07/30 07:57:43;;;;;;;0.70;0.70;;;33.30;42.40;;;;;;5094610;28;20435;-71
2022/07/30 08:00:11;;;;;;;0.90;0.90;;;32.20;42.10;;;;;;5095695;28;20198;-71
2022/07/30 08:02:37;;;;;;;1.90;0.97;;;31.60;43.00;;;;;;5078270;28;20418;-71
2022/07/30 08:05:04;;;;;;;0.80;0.80;;;31.50;42.50;;;;;;5095978;28;20451;-69
2022/07/30 08:07:31;;;;;;;0.60;0.60;;;31.30;43.60;;;;;;5096743;28;20247;-70
2022/07/30 08:09:56;;;;;;;1.00;0.90;;;32.20;43.20;;;;;;5078169;28;20898;-70
2022/07/30 08:12:22;;;;;;;0.53;0.53;;;31.70;43.00;;;;;;5096668;28;20428;-70
2022/07/30 08:14:48;;;;;;;0.80;0.70;;;32.70;43.10;;;;;;5095733;28;20570;-70
2022/07/30 08:17:14;;;;;;;0.57;0.57;;;33.80;41.40;;;;;;5096877;28;20176;-71
2022/07/30 08:19:39;;;;;;;0.77;0.50;;;34.20;40.30;;;;;;5096141;28;20625;-70
2022/07/30 08:22:05;;;;;;;0.60;0.53;;;33.80;40.00;;;;;;5096066;28;20183;-71
2022/07/30 08:24:31;;;;;;;0.50;0.50;;;34.20;40.00;;;;;;5096663;28;20220;-70
2022/07/30 08:26:57;;;;;;;0.77;0.77;;;34.80;38.60;;;;;;5096840;28;20163;-70
2022/07/30 08:29:23;;;;;;;0.60;0.60;;;36.10;37.40;;;;;;5095875;28;20172;-71
2022/07/30 08:31:48;;;;;;;0.60;0.60;;;37.20;36.10;;;;;;5096786;28;20173;-68
2022/07/30 08:34:14;;;;;;;1.20;0.70;;;37.30;34.40;;;;;;5095857;28;20273;-67
2022/07/30 08:36:40;;;;;;;0.80;0.80;;;35.90;34.70;;;;;;5096721;28;20350;-68
2022/07/30 08:39:06;;;;;;;0.70;0.70;;;34.50;36.40;;;;;;5094581;28;20410;-67
2022/07/30 08:41:32;;;;;;;0.63;0.63;;;32.70;37.80;;;;;;5095071;28;20402;-67
2022/07/30 08:44:00;;;;;;;0.60;0.60;;;31.40;41.30;;;;;;5094883;28;20189;-68
2022/07/30 08:46:29;;;;;;;0.93;0.40;;;30.60;42.10;;;;;;5096099;28;20279;-67
2022/07/30 08:48:56;;;;;;;0.60;0.60;;;29.60;44.30;;;;;;5092980;28;20399;-68
2022/07/30 08:51:23;;;;;;;0.60;0.60;;;29.90;44.20;;;;;;5095968;28;20410;-67
2022/07/30 08:53:49;;;;;;;0.80;0.80;;;30.10;42.90;;;;;;5096526;28;20429;-67
2022/07/30 08:56:16;;;;;;;0.67;0.67;;;30.30;43.20;;;;;;5095648;28;20402;-67
2022/07/30 08:58:42;;;;;;;0.93;0.93;;;29.70;43.60;;;;;;5096058;28;20771;-67
2022/07/30 09:01:07;;;;;;;0.70;0.70;;;29.70;43.00;;;;;;5096064;28;20403;-69
2022/07/30 09:03:36;;;;;;;0.50;0.50;;;29.40;43.20;;;;;;5094954;28;20445;-69
2022/07/30 09:06:03;;;;;;;0.50;0.50;;;29.50;43.60;;;;;;5095467;28;20228;-69
2022/07/30 09:08:30;;;;;;;0.50;0.50;;;30.20;41.80;;;;;;5095471;28;20403;-70
2022/07/30 09:10:55;;;;;;;0.60;0.50;;;30.10;42.00;;;;;;5094147;28;20433;-68
2022/07/30 09:13:27;;;;;;;0.40;0.40;;;30.20;41.40;;;;;;5095168;28;20935;-69
2022/07/30 09:15:54;;;;;;;0.60;0.60;;;30.50;39.50;;;;;;5095206;28;20641;-70
2022/07/30 09:18:33;;;;;;;0.87;0.53;;;30.20;40.60;;;;;;5096132;28;20414;-69
2022/07/30 09:21:12;;;;;;;0.50;0.50;;;29.70;43.20;;;;;;5095232;28;20414;-69
2022/07/30 09:23:37;;;;;;;1.00;0.50;;;29.50;42.50;;;;;;5096032;28;20491;-69
2022/07/30 09:26:03;;;;;;;0.50;0.50;;;28.80;42.90;;;;;;5096246;28;20922;-70
2022/07/30 09:28:31;;;;;;;0.63;0.63;;;28.20;45.10;;;;;;5095844;28;20169;-70
2022/07/30 09:30:58;;;;;;;0.63;0.50;;;27.40;45.80;;;;;;5095746;28;20168;-69
2022/07/30 09:33:34;;;;;;;0.60;0.60;;;26.40;47.10;;;;;;5095343;28;20423;-69
2022/07/30 09:36:00;;;;;;;0.60;0.60;;;26.80;48.10;;;;;;5095922;28;20403;-69
2022/07/30 09:38:27;;;;;;;0.40;0.40;;;28.20;47.30;;;;;;5077206;28;20406;-69
2022/07/30 09:40:54;;;;;;;1.53;0.50;;;29.80;44.90;;;;;;5096113;28;20177;-70
2022/07/30 09:43:20;;;;;;;0.53;0.53;;;31.20;41.40;;;;;;5078006;28;20939;-70
2022/07/30 09:45:51;;;;;;;0.60;0.60;;;32.00;41.80;;;;;;5095874;28;20458;-70
2022/07/30 09:48:25;;;;;;;0.50;0.50;;;31.70;38.20;;;;;;5095349;28;20169;-69
2022/07/30 09:50:52;;;;;;;1.17;0.60;;;31.60;39.10;;;;;;5095670;28;20731;-69
2022/07/30 09:53:21;;;;;;;0.53;0.53;;;31.50;39.20;;;;;;5095641;28;20800;-69
2022/07/30 09:55:47;;;;;;;0.40;0.40;;;32.60;38.70;;;;;;5095338;28;20411;-69
2022/07/30 09:58:13;;;;;;;0.40;0.40;;;33.00;37.60;;;;;;5095605;28;20403;-69
2022/07/30 10:00:40;;;;;;;0.90;0.70;;;33.20;37.40;;;;;;5095629;28;20399;-69
2022/07/30 10:03:23;;;;;;;0.40;0.40;;;33.70;37.20;;;;;;5093737;28;20433;-70
2022/07/30 10:05:57;;;;;;;1.37;0.80;;;34.20;36.40;;;;;;5093501;28;20533;-69
2022/07/30 10:08:51;;;;;;;1.00;0.90;;;33.00;36.30;;;;;;5094681;28;20426;-69
2022/07/30 10:11:22;;;;;;;0.50;0.50;;;31.40;39.30;;;;;;5094792;28;20402;-70
2022/07/30 10:13:49;;;;;;;0.97;0.50;;;30.50;40.60;;;;;;5094384;28;20442;-69
2022/07/30 10:16:15;;;;;;;0.60;0.60;;;30.20;40.60;;;;;;5093808;28;20410;-70
2022/07/30 10:18:42;;;;;;;0.70;0.70;;;30.70;40.20;;;;;;5094786;28;20399;-69
2022/07/30 10:21:09;;;;;;;0.60;0.60;;;31.30;40.10;;;;;;5095001;28;20399;-69
2022/07/30 10:23:35;;;;;;;0.73;0.70;;;32.10;40.60;;;;;;5094564;28;20429;-69
2022/07/30 10:26:01;;;;;;;2.10;0.50;;;32.80;37.80;;;;;;5094760;28;20455;-70
2022/07/30 10:28:28;;;;;;;0.53;0.53;;;33.10;36.70;;;;;;5094531;28;20400;-69
2022/07/30 10:30:56;;;;;;;0.53;0.53;;;32.90;37.40;;;;;;5094967;28;20914;-70
2022/07/30 10:33:24;;;;;;;0.50;0.50;;;32.70;37.10;;;;;;5094685;28;20843;-69
2022/07/30 10:35:50;;;;;;;0.40;0.40;;;32.60;36.30;;;;;;5076329;28;20911;-69
2022/07/30 10:38:19;;;;;;;0.70;0.70;;;31.70;38.20;;;;;;5094378;28;20424;-69
2022/07/30 10:40:54;;;;;;;0.63;0.60;;;31.40;39.60;;;;;;5094545;28;20220;-69
2022/07/30 10:43:23;;;;;;;0.40;0.40;;;31.70;40.20;;;;;;5094541;28;20446;-69
2022/07/30 10:46:07;;;;;;;0.90;0.60;;;31.20;37.50;;;;;;5093801;28;20446;-69
2022/07/30 10:48:34;;;;;;;0.60;0.57;;;30.50;38.90;;;;;;5094287;28;20399;-69
2022/07/30 10:51:00;;;;;;;1.17;0.50;;;29.80;39.80;;;;;;5094270;28;20391;-69
2022/07/30 10:53:32;;;;;;;0.40;0.40;;;29.50;41.40;;;;;;5093846;28;20949;-70
2022/07/30 10:56:27;;;;;;;0.50;0.50;;;29.20;41.80;;;;;;5094190;28;20426;-69
2022/07/30 10:59:07;;;;;;;0.60;0.50;;;29.50;43.10;;;;;;5080709;28;20423;-69
2022/07/30 11:01:48;;;;;;;0.60;0.50;;;29.40;41.90;;;;;;5093449;28;20391;-69
2022/07/30 11:04:24;;;;;;;0.40;0.40;;;29.60;44.20;;;;;;5076284;28;21094;-69
2022/07/30 11:06:51;;;;;;;0.50;0.50;;;29.40;42.20;;;;;;5094618;28;20508;-69
2022/07/30 11:09:39;;;;;;;0.47;0.47;;;29.50;40.60;;;;;;5093875;28;20423;-69
2022/07/30 11:12:06;;;;;;;0.63;0.63;;;28.90;42.00;;;;;;5094254;28;20395;-69
2022/07/30 11:14:47;;;;;;;0.87;0.60;;;28.90;45.00;;;;;;5094283;28;20898;-68
2022/07/30 11:17:15;;;;;;;0.40;0.40;;;28.70;41.80;;;;;;5093453;28;20769;-70
2022/07/30 11:20:13;;;;;;;0.60;0.50;;;28.50;41.20;;;;;;5092827;28;20811;-69
2022/07/30 11:22:40;;;;;;;0.60;0.47;;;28.00;42.60;;;;;;5059860;28;20437;-69
2022/07/30 11:25:28;;;;;;;0.50;0.50;;;27.90;44.50;;;;;;5093460;28;20459;-69
2022/07/30 11:27:54;;;;;;;0.53;0.53;;;27.70;43.50;;;;;;5092967;28;20533;-69
2022/07/30 11:30:20;;;;;;;1.40;1.30;;;27.50;43.20;;;;;;5093727;28;20407;-69
2022/07/30 11:32:46;;;;;;;0.77;0.67;;;27.40;44.40;;;;;;5093283;28;20399;-69
2022/07/30 11:35:22;;;;;;;0.40;0.40;;;27.60;45.10;;;;;;5092633;28;20188;-69
2022/07/30 11:38:07;;;;;;;0.67;0.67;;;27.80;45.10;;;;;;5092702;28;20501;-68
2022/07/30 11:40:58;;;;;;;0.80;0.60;;;28.00;45.10;;;;;;5091932;28;20406;-70
2022/07/30 11:43:28;;;;;;;0.63;0.63;;;28.00;43.20;;;;;;5084213;28;20435;-69
2022/07/30 11:46:07;;;;;;;0.40;0.40;;;27.80;43.70;;;;;;5092810;28;20819;-70
2022/07/30 11:48:33;;;;;;;0.40;0.40;;;27.40;44.70;;;;;;5092707;28;20906;-69
2022/07/30 11:51:00;;;;;;;0.83;0.70;;;27.40;44.80;;;;;;5091854;28;20422;-68
2022/07/30 11:53:26;;;;;;;0.80;0.70;;;27.40;45.80;;;;;;5092851;28;20518;-69
2022/07/30 11:55:57;;;;;;;0.53;0.53;;;27.10;43.60;;;;;;5091504;28;20780;-69
2022/07/30 11:58:37;;;;;;;0.90;0.43;;;27.00;45.30;;;;;;5092980;28;20403;-69
2022/07/30 12:01:12;;;;;;;0.50;0.43;;;26.80;45.60;;;;;;5093509;28;20902;-69
2022/07/30 12:03:44;;;;;;;0.60;0.60;;;26.70;47.70;;;;;;5092917;28;20420;-69
2022/07/30 12:06:18;;;;;;;0.50;0.50;;;26.90;46.60;;;;;;5093084;28;20450;-69
2022/07/30 12:08:46;;;;;;;0.67;0.67;;;26.90;45.40;;;;;;5093189;28;20921;-69
2022/07/30 12:11:12;;;;;;;0.67;0.67;;;26.90;46.10;;;;;;5093465;28;20389;-69
2022/07/30 12:13:39;;;;;;;0.77;0.77;;;27.10;46.10;;;;;;5093412;28;20423;-69
2022/07/30 12:16:09;;;;;;;0.50;0.50;;;27.30;45.80;;;;;;5093235;28;20407;-69
2022/07/30 12:18:35;;;;;;;0.90;0.77;;;27.50;45.60;;;;;;5093165;28;20848;-69
2022/07/30 12:21:10;;;;;;;0.40;0.40;;;27.40;45.60;;;;;;5093357;28;20761;-69
2022/07/30 12:23:37;;;;;;;0.47;0.47;;;27.40;44.70;;;;;;5093340;28;20509;-70
2022/07/30 12:26:04;;;;;;;0.70;0.70;;;27.50;44.60;;;;;;5092985;28;20454;-69
2022/07/30 12:28:32;;;;;;;0.80;0.80;;;27.50;44.00;;;;;;5093118;28;20726;-69
2022/07/30 12:30:59;;;;;;;0.40;0.40;;;27.60;45.40;;;;;;5093243;28;20413;-70
2022/07/30 12:33:25;;;;;;;0.80;0.80;;;27.40;45.10;;;;;;5092980;28;20458;-68
2022/07/30 12:35:54;;;;;;;0.70;0.70;;;27.40;45.80;;;;;;5093000;28;20453;-69
2022/07/30 12:38:22;;;;;;;0.90;0.80;;;27.20;44.90;;;;;;5092986;28;20403;-69
2022/07/30 12:41:03;;;;;;;0.60;0.57;;;27.20;45.30;;;;;;5092990;28;20412;-69
2022/07/30 12:43:43;;;;;;;1.17;0.80;;;27.40;46.00;;;;;;5092925;28;20440;-69
2022/07/30 12:46:10;;;;;;;0.70;0.67;;;27.50;44.80;;;;;;5096522;28;20806;-69
2022/07/30 12:48:36;;;;;;;1.20;0.80;;;27.40;44.60;;;;;;5096307;28;20806;-68
2022/07/30 12:51:09;;;;;;;0.50;0.50;;;27.20;44.70;;;;;;5096640;28;20454;-69
2022/07/30 12:53:35;;;;;;;1.37;0.90;;;27.20;44.40;;;;;;5096090;28;20189;-70